createdAt,value
2023-01-30T00:01:49.893Z,2.84
2023-01-30T00:04:17.644Z,2.97
2023-01-30T00:06:46.811Z,3.01
2023-01-30T00:09:15.816Z,3.01
2023-01-30T00:11:43.641Z,3.07
2023-01-30T00:14:11.525Z,3.03
2023-01-30T00:16:39.270Z,3.00
2023-01-30T00:19:07.086Z,2.94
2023-01-30T00:21:35.155Z,2.94
2023-01-30T00:24:05.082Z,2.90
2023-01-30T00:26:32.992Z,2.88
2023-01-30T00:29:00.806Z,2.85
2023-01-30T00:31:31.657Z,2.85
2023-01-30T00:33:59.500Z,2.84
2023-01-30T00:36:27.210Z,2.79
2023-01-30T00:38:58.014Z,2.77
2023-01-30T00:41:48.196Z,2.81
2023-01-30T00:44:44.758Z,2.83
2023-01-30T00:47:12.852Z,2.80
2023-01-30T00:49:42.230Z,2.79
2023-01-30T00:52:09.847Z,2.80
2023-01-30T00:54:37.558Z,2.81
2023-01-30T00:57:06.675Z,2.81
2023-01-30T00:59:34.941Z,2.80
2023-01-30T01:02:02.841Z,2.79
2023-01-30T01:04:30.637Z,2.73
2023-01-30T01:06:58.576Z,2.77
2023-01-30T01:09:26.337Z,2.76
2023-01-30T01:11:54.047Z,2.73
2023-01-30T01:14:23.161Z,2.74
2023-01-30T01:16:51.052Z,2.74
2023-01-30T01:19:18.778Z,2.77
2023-01-30T01:21:46.570Z,2.74
2023-01-30T01:24:15.702Z,2.74
2023-01-30T01:26:44.933Z,2.68
2023-01-30T01:29:14.479Z,2.68
2023-01-30T01:31:43.927Z,2.70
2023-01-30T01:34:11.943Z,2.70
2023-01-30T01:36:53.168Z,2.79
2023-01-30T01:39:22.200Z,2.81
2023-01-30T01:41:50.252Z,2.84
2023-01-30T01:44:18.062Z,2.94
2023-01-30T01:46:51.702Z,2.95
2023-01-30T01:49:23.300Z,3.05
2023-01-30T01:51:57.627Z,3.11
2023-01-30T01:54:33.212Z,3.22
2023-01-30T01:57:03.973Z,3.32
2023-01-30T01:59:35.888Z,3.36
2023-01-30T02:02:10.034Z,3.38
2023-01-30T02:04:57.605Z,3.40
2023-01-30T02:07:26.327Z,3.40
2023-01-30T02:09:54.110Z,3.45
2023-01-30T02:12:21.966Z,3.40
2023-01-30T02:14:50.923Z,3.39
2023-01-30T02:17:20.570Z,3.32
2023-01-30T02:19:52.690Z,3.31
2023-01-30T02:23:06.641Z,3.28
2023-01-30T02:25:56.505Z,3.29
2023-01-30T02:28:46.045Z,3.32
2023-01-30T02:31:28.628Z,3.31
2023-01-30T02:34:09.517Z,3.31
2023-01-30T02:36:47.387Z,3.26
2023-01-30T02:39:25.641Z,3.28
2023-01-30T02:42:09.741Z,3.34
2023-01-30T02:44:51.589Z,3.38
2023-01-30T02:47:26.439Z,3.40
2023-01-30T02:50:01.897Z,3.51
2023-01-30T02:52:30.315Z,3.59
2023-01-30T02:54:58.169Z,3.55
2023-01-30T02:57:27.154Z,3.58
2023-01-30T03:00:02.393Z,3.52
2023-01-30T03:02:51.992Z,3.39
2023-01-30T03:05:37.513Z,3.43
2023-01-30T03:08:21.062Z,3.45
2023-01-30T03:10:55.683Z,3.40
2023-01-30T03:13:34.871Z,3.35
2023-01-30T03:16:07.691Z,3.31
2023-01-30T03:18:40.842Z,3.29
2023-01-30T03:21:09.713Z,3.26
2023-01-30T03:23:37.495Z,3.22
2023-01-30T03:26:07.053Z,3.21
2023-01-30T03:28:36.007Z,3.19
2023-01-30T03:31:04.053Z,3.19
2023-01-30T03:33:31.902Z,3.16
2023-01-30T03:36:01.234Z,3.24
2023-01-30T03:38:29.048Z,3.28
2023-01-30T03:40:56.976Z,3.28
2023-01-30T03:43:24.796Z,3.29
2023-01-30T03:45:52.599Z,3.35
2023-01-30T03:48:20.418Z,3.38
2023-01-30T03:50:48.748Z,3.39
2023-01-30T03:53:19.071Z,3.40
2023-01-30T03:55:46.924Z,3.40
2023-01-30T03:58:14.891Z,3.40
2023-01-30T04:00:42.740Z,3.45
2023-01-30T04:03:10.595Z,3.43
2023-01-30T04:05:38.900Z,3.53
2023-01-30T04:08:09.198Z,3.58
2023-01-30T04:10:38.565Z,3.62
2023-01-30T04:13:06.261Z,3.65
2023-01-30T04:15:34.555Z,3.72
2023-01-30T04:18:40.310Z,3.80
2023-01-30T04:21:20.840Z,3.79
2023-01-30T04:23:48.705Z,3.82
2023-01-30T04:26:17.947Z,3.85
2023-01-30T04:28:45.725Z,3.90
2023-01-30T04:31:14.707Z,3.89
2023-01-30T04:34:05.607Z,3.90
2023-01-30T04:36:33.597Z,3.94
2023-01-30T04:39:01.551Z,3.97
2023-01-30T04:41:32.714Z,4.00
2023-01-30T04:44:02.502Z,4.03
2023-01-30T04:46:49.639Z,4.06
2023-01-30T04:49:17.634Z,4.04
2023-01-30T04:51:45.366Z,4.07
2023-01-30T04:54:13.396Z,4.08
2023-01-30T04:56:43.658Z,4.04
2023-01-30T04:59:11.408Z,4.06
2023-01-30T05:01:43.812Z,4.08
2023-01-30T05:04:11.591Z,4.04
2023-01-30T05:06:39.310Z,4.04
2023-01-30T05:09:07.210Z,4.01
2023-01-30T05:11:35.495Z,4.04
2023-01-30T05:14:04.609Z,3.98
2023-01-30T05:16:32.365Z,3.97
2023-01-30T05:19:00.141Z,3.96
2023-01-30T05:21:29.214Z,3.98
2023-01-30T05:23:57.643Z,4.01
2023-01-30T05:26:25.819Z,4.08
2023-01-30T05:28:54.530Z,4.13
2023-01-30T05:31:24.247Z,4.14
2023-01-30T05:33:53.033Z,4.17
2023-01-30T05:36:23.757Z,4.17
2023-01-30T05:38:51.707Z,4.18
2023-01-30T05:41:19.941Z,4.21
2023-01-30T05:43:51.141Z,4.25
2023-01-30T05:46:19.489Z,4.27
2023-01-30T05:48:48.643Z,4.28
2023-01-30T05:51:17.722Z,4.28
2023-01-30T05:53:45.494Z,4.28
2023-01-30T05:56:13.559Z,4.30
2023-01-30T05:58:41.325Z,4.33
2023-01-30T06:01:12.560Z,4.31
2023-01-30T06:03:40.513Z,4.33
2023-01-30T06:06:11.285Z,4.37
2023-01-30T06:08:39.049Z,4.35
2023-01-30T06:11:09.539Z,4.38
2023-01-30T06:13:38.426Z,4.41
2023-01-30T06:16:07.105Z,4.44
2023-01-30T06:18:35.214Z,4.44
2023-01-30T06:21:03.040Z,4.47
2023-01-30T06:23:32.684Z,4.52
2023-01-30T06:26:02.663Z,4.52
2023-01-30T06:28:31.165Z,4.55
2023-01-30T06:30:59.057Z,5.33
2023-01-30T06:33:26.954Z,5.39
2023-01-30T06:35:54.804Z,5.43
2023-01-30T06:38:22.564Z,5.40
2023-01-30T06:40:51.744Z,5.39
2023-01-30T06:43:19.879Z,5.52
2023-01-30T06:45:47.699Z,5.74
2023-01-30T06:48:15.550Z,5.79
2023-01-30T06:50:43.333Z,5.91
2023-01-30T06:53:12.012Z,5.94
2023-01-30T06:55:39.748Z,5.92
2023-01-30T06:58:10.356Z,5.92
2023-01-30T07:00:39.656Z,6.03
2023-01-30T07:03:07.525Z,5.87
2023-01-30T07:05:36.740Z,6.11
2023-01-30T07:08:04.650Z,5.94
2023-01-30T07:10:38.357Z,6.12
2023-01-30T07:13:06.177Z,6.16
2023-01-30T07:15:35.291Z,6.13
2023-01-30T07:18:03.119Z,6.18
2023-01-30T07:20:31.359Z,6.12
2023-01-30T07:22:59.295Z,6.16
2023-01-30T07:25:28.677Z,6.28
2023-01-30T07:27:57.386Z,6.25
2023-01-30T07:30:25.502Z,6.02
2023-01-30T07:32:57.517Z,6.19
2023-01-30T07:35:27.067Z,6.11
2023-01-30T07:37:54.933Z,6.43
2023-01-30T07:40:23.209Z,6.43
2023-01-30T07:42:58.499Z,6.53
2023-01-30T07:45:26.691Z,6.37
2023-01-30T07:47:56.223Z,6.36
2023-01-30T07:50:24.020Z,6.32
2023-01-30T07:52:51.801Z,6.34
2023-01-30T07:55:19.951Z,6.37
2023-01-30T07:57:47.865Z,6.52
2023-01-30T08:00:16.872Z,6.58
2023-01-30T08:02:44.861Z,6.54
2023-01-30T08:05:13.993Z,6.49
2023-01-30T08:07:41.858Z,6.46
2023-01-30T08:10:12.088Z,6.63
2023-01-30T08:12:43.825Z,6.50
2023-01-30T08:15:12.164Z,6.63
2023-01-30T08:17:39.972Z,6.56
2023-01-30T08:20:08.872Z,6.70
2023-01-30T08:22:38.002Z,6.73
2023-01-30T08:25:06.684Z,6.81
2023-01-30T08:27:34.492Z,6.77
2023-01-30T08:30:02.272Z,6.90
2023-01-30T08:32:30.024Z,7.02
2023-01-30T08:34:57.768Z,6.97
2023-01-30T08:37:25.579Z,6.84
2023-01-30T08:39:54.697Z,6.80
2023-01-30T08:42:22.506Z,6.74
2023-01-30T08:44:50.293Z,6.88
2023-01-30T08:47:18.111Z,6.77
2023-01-30T08:49:45.911Z,6.70
2023-01-30T08:52:13.687Z,6.73
2023-01-30T08:54:41.460Z,6.79
2023-01-30T08:57:10.709Z,6.83
2023-01-30T08:59:38.494Z,6.85
2023-01-30T09:02:06.406Z,7.02
2023-01-30T09:04:34.368Z,7.08
2023-01-30T09:07:02.215Z,6.95
2023-01-30T09:09:30.092Z,6.88
2023-01-30T09:11:57.946Z,6.95
2023-01-30T09:14:27.197Z,8.04
2023-01-30T09:16:56.421Z,9.62
2023-01-30T09:19:24.391Z,10.09
2023-01-30T09:21:52.515Z,10.93
2023-01-30T09:24:20.900Z,10.93
2023-01-30T09:26:48.765Z,10.77
2023-01-30T09:29:16.643Z,11.22
2023-01-30T09:31:45.814Z,11.03
2023-01-30T09:34:13.591Z,11.55
2023-01-30T09:36:41.520Z,11.28
2023-01-30T09:39:09.396Z,11.66
2023-01-30T09:42:03.287Z,11.82
2023-01-30T09:44:52.056Z,11.61
2023-01-30T09:47:27.979Z,12.07
2023-01-30T09:50:06.244Z,12.33
2023-01-30T09:52:54.322Z,12.40
2023-01-30T09:55:24.630Z,12.55
2023-01-30T09:57:53.594Z,13.39
2023-01-30T10:00:27.606Z,12.45
2023-01-30T10:03:03.167Z,11.79
2023-01-30T10:05:39.930Z,11.11
2023-01-30T10:08:25.404Z,10.69
2023-01-30T10:11:09.566Z,11.01
2023-01-30T10:13:58.197Z,9.87
2023-01-30T10:16:31.471Z,9.26
2023-01-30T10:19:33.593Z,8.80
2023-01-30T10:22:12.708Z,8.33
2023-01-30T10:24:53.188Z,8.40
2023-01-30T10:27:21.740Z,8.41
2023-01-30T10:29:54.087Z,9.92
2023-01-30T10:32:29.009Z,9.97
2023-01-30T10:35:05.627Z,9.40
2023-01-30T10:37:42.776Z,10.05
2023-01-30T10:40:19.767Z,9.92
2023-01-30T10:42:53.471Z,11.69
2023-01-30T10:45:28.494Z,11.63
2023-01-30T10:48:05.151Z,10.66
2023-01-30T10:50:48.931Z,10.42
2023-01-30T10:53:22.012Z,9.73
2023-01-30T10:55:53.580Z,9.20
2023-01-30T10:58:28.691Z,8.93
2023-01-30T11:01:02.083Z,8.59
2023-01-30T11:03:38.855Z,8.41
2023-01-30T11:06:12.598Z,8.14
2023-01-30T11:08:40.377Z,8.13
2023-01-30T11:11:28.552Z,8.25
2023-01-30T11:14:04.366Z,8.27
2023-01-30T11:16:32.774Z,8.52
2023-01-30T11:19:19.773Z,9.23
2023-01-30T11:21:52.346Z,10.25
2023-01-30T11:24:22.169Z,10.43
2023-01-30T11:26:50.565Z,9.82
2023-01-30T11:29:27.664Z,9.27
2023-01-30T11:31:55.745Z,9.02
2023-01-30T11:34:25.143Z,8.66
2023-01-30T11:36:54.125Z,8.52
2023-01-30T11:39:29.797Z,8.41
2023-01-30T11:42:01.783Z,8.31
2023-01-30T11:44:31.318Z,8.17
2023-01-30T11:47:01.843Z,7.96
2023-01-30T11:49:47.246Z,8.13
2023-01-30T11:52:22.581Z,8.30
2023-01-30T11:54:51.186Z,8.08
2023-01-30T11:57:20.886Z,8.14
2023-01-30T11:59:55.159Z,8.01
2023-01-30T12:02:26.616Z,7.90
2023-01-30T12:04:57.892Z,7.82
2023-01-30T12:07:29.497Z,7.86
2023-01-30T12:09:59.095Z,7.79
2023-01-30T12:12:33.165Z,7.82
2023-01-30T12:15:19.651Z,7.84
2023-01-30T12:17:53.610Z,7.79
2023-01-30T12:20:30.705Z,7.67
2023-01-30T12:23:11.967Z,7.76
2023-01-30T12:25:44.549Z,7.77
2023-01-30T12:28:19.867Z,7.72
2023-01-30T12:30:51.797Z,7.58
2023-01-30T12:33:19.860Z,7.51
2023-01-30T12:35:57.280Z,7.43
2023-01-30T12:38:40.098Z,7.56
2023-01-30T12:41:20.227Z,7.56
2023-01-30T12:44:14.855Z,7.76
2023-01-30T12:47:00.637Z,7.97
2023-01-30T12:49:47.717Z,7.70
2023-01-30T12:52:48.494Z,7.63
2023-01-30T12:55:27.183Z,7.65
2023-01-30T12:58:01.402Z,7.80
2023-01-30T13:00:41.922Z,7.66
2023-01-30T13:03:24.011Z,7.56
2023-01-30T13:05:58.031Z,7.91
2023-01-30T13:08:47.084Z,7.87
2023-01-30T13:11:34.591Z,7.89
2023-01-30T13:14:08.479Z,7.82
2023-01-30T13:16:42.693Z,7.91
2023-01-30T13:19:19.256Z,8.10
2023-01-30T13:21:52.467Z,8.07
2023-01-30T13:24:26.683Z,8.06
2023-01-30T13:27:00.374Z,7.97
2023-01-30T13:29:32.337Z,7.82
2023-01-30T13:32:04.449Z,8.04
2023-01-30T13:34:36.165Z,8.08
2023-01-30T13:37:08.592Z,7.93
2023-01-30T13:39:42.382Z,8.04
2023-01-30T13:42:20.549Z,8.04
2023-01-30T13:44:51.339Z,8.25
2023-01-30T13:47:33.203Z,8.41
2023-01-30T13:50:13.733Z,8.51
2023-01-30T13:52:45.780Z,8.17
2023-01-30T13:55:26.919Z,8.01
2023-01-30T13:58:03.329Z,8.17
2023-01-30T14:00:32.545Z,8.20
2023-01-30T14:03:16.570Z,8.17
2023-01-30T14:06:02.305Z,8.11
2023-01-30T14:08:34.828Z,8.04
2023-01-30T14:11:03.140Z,8.18
2023-01-30T14:13:33.232Z,8.04
2023-01-30T14:16:04.168Z,7.79
2023-01-30T14:18:36.035Z,7.66
2023-01-30T14:21:15.560Z,7.79
2023-01-30T14:23:55.070Z,7.84
2023-01-30T14:27:00.932Z,7.80
2023-01-30T14:29:56.571Z,7.79
2023-01-30T14:32:55.296Z,7.75
2023-01-30T14:35:28.787Z,7.90
2023-01-30T14:38:11.853Z,7.87
2023-01-30T14:40:47.686Z,7.84
2023-01-30T14:43:49.709Z,7.77
2023-01-30T14:46:54.272Z,7.76
2023-01-30T14:49:36.316Z,7.80
2023-01-30T14:52:04.781Z,7.82
2023-01-30T14:54:42.144Z,7.82
2023-01-30T14:57:32.994Z,7.89
2023-01-30T15:00:16.194Z,7.90
2023-01-30T15:02:54.346Z,7.80
2023-01-30T15:05:29.598Z,7.80
2023-01-30T15:08:03.509Z,7.84
2023-01-30T15:10:55.711Z,7.77
2023-01-30T15:13:53.225Z,7.73
2023-01-30T15:16:44.823Z,7.69
2023-01-30T15:19:38.826Z,7.61
2023-01-30T15:22:17.579Z,7.52
2023-01-30T15:25:18.621Z,7.43
2023-01-30T15:28:00.449Z,7.53
2023-01-30T15:30:43.816Z,7.61
2023-01-30T15:33:29.461Z,7.65
2023-01-30T15:35:59.748Z,7.41
2023-01-30T15:38:29.143Z,7.42
2023-01-30T15:40:57.858Z,7.39
2023-01-30T15:43:57.236Z,7.32
2023-01-30T15:46:34.649Z,7.24
2023-01-30T15:49:35.871Z,7.39
2023-01-30T15:52:06.949Z,7.49
2023-01-30T15:54:34.995Z,7.66
2023-01-30T15:57:02.958Z,7.72
2023-01-30T15:59:35.921Z,7.63
2023-01-30T16:02:05.941Z,7.61
2023-01-30T16:04:33.741Z,7.63
2023-01-30T16:07:14.484Z,7.45
2023-01-30T16:09:49.587Z,7.25
2023-01-30T16:12:26.305Z,7.24
2023-01-30T16:15:05.706Z,7.35
2023-01-30T16:17:40.518Z,7.45
2023-01-30T16:20:14.606Z,7.52
2023-01-30T16:22:46.088Z,7.49
2023-01-30T16:25:22.933Z,7.52
2023-01-30T16:27:53.008Z,7.29
2023-01-30T16:30:25.587Z,7.07
2023-01-30T16:32:55.179Z,6.90
2023-01-30T16:35:31.724Z,6.71
2023-01-30T16:38:01.181Z,6.57
2023-01-30T16:40:33.484Z,6.52
2023-01-30T16:43:02.614Z,6.39
2023-01-30T16:46:03.088Z,6.39
2023-01-30T16:48:34.252Z,6.29
2023-01-30T16:51:13.052Z,6.28
2023-01-30T16:53:50.282Z,6.18
2023-01-30T16:56:20.333Z,6.11
2023-01-30T16:58:52.415Z,6.13
2023-01-30T17:01:22.251Z,6.16
2023-01-30T17:04:00.376Z,6.16
2023-01-30T17:06:35.162Z,6.11
2023-01-30T17:09:05.157Z,6.06
2023-01-30T17:11:36.857Z,6.02
2023-01-30T17:14:22.450Z,6.02
2023-01-30T17:17:02.256Z,5.99
2023-01-30T17:19:30.071Z,5.97
2023-01-30T17:21:59.677Z,5.97
2023-01-30T17:24:28.821Z,5.95
2023-01-30T17:27:02.294Z,6.01
2023-01-30T17:29:42.701Z,5.92
2023-01-30T17:32:12.556Z,5.89
2023-01-30T17:34:41.366Z,5.85
2023-01-30T17:37:16.210Z,5.85
2023-01-30T17:39:46.137Z,5.87
2023-01-30T17:42:17.838Z,5.82
2023-01-30T17:44:45.634Z,5.87
2023-01-30T17:47:14.246Z,5.82
2023-01-30T17:49:42.003Z,5.82
2023-01-30T17:52:09.881Z,5.87
2023-01-30T17:54:37.886Z,5.84
2023-01-30T17:57:09.592Z,5.85
2023-01-30T17:59:38.766Z,5.84
2023-01-30T18:02:07.998Z,5.85
2023-01-30T18:04:35.791Z,5.81
2023-01-30T18:07:06.292Z,5.87
2023-01-30T18:09:34.148Z,5.88
2023-01-30T18:12:01.974Z,5.84
2023-01-30T18:14:29.819Z,5.79
2023-01-30T18:17:00.836Z,5.79
2023-01-30T18:19:31.493Z,5.84
2023-01-30T18:22:00.015Z,5.78
2023-01-30T18:24:27.976Z,5.65
2023-01-30T18:26:55.984Z,5.57
2023-01-30T18:29:24.078Z,5.41
2023-01-30T18:31:52.079Z,5.33
2023-01-30T18:34:21.461Z,5.24
2023-01-30T18:36:49.451Z,5.16
2023-01-30T18:39:17.366Z,5.17
2023-01-30T18:41:45.230Z,5.20
2023-01-30T18:44:13.294Z,5.23
2023-01-30T18:46:41.385Z,5.24
2023-01-30T18:49:09.368Z,5.31
2023-01-30T18:51:40.235Z,5.31
2023-01-30T18:54:08.076Z,5.36
2023-01-30T18:56:36.208Z,5.36
2023-01-30T18:59:05.766Z,5.37
2023-01-30T19:01:36.670Z,5.40
2023-01-30T19:04:06.332Z,5.40
2023-01-30T19:06:37.199Z,5.40
2023-01-30T19:09:07.284Z,5.34
2023-01-30T19:11:52.403Z,5.33
2023-01-30T19:14:20.293Z,5.34
2023-01-30T19:16:48.720Z,5.33
2023-01-30T19:19:16.758Z,5.34
2023-01-30T19:21:44.734Z,5.34
2023-01-30T19:24:16.207Z,5.34
2023-01-30T19:26:44.496Z,5.33
2023-01-30T19:29:12.431Z,5.36
2023-01-30T19:31:40.585Z,5.31
2023-01-30T19:34:08.875Z,5.33
2023-01-30T19:36:37.417Z,5.39
2023-01-30T19:39:06.991Z,5.37
2023-01-30T19:41:37.113Z,5.34
2023-01-30T19:44:07.277Z,5.37
2023-01-30T19:46:35.748Z,5.31
2023-01-30T19:49:03.772Z,5.33
2023-01-30T19:51:33.829Z,5.31
2023-01-30T19:54:04.473Z,5.36
2023-01-30T19:56:33.086Z,5.37
2023-01-30T19:59:02.908Z,5.31
2023-01-30T20:01:32.929Z,5.34
2023-01-30T20:04:02.397Z,5.33
2023-01-30T20:06:32.054Z,5.33
2023-01-30T20:09:01.395Z,5.29
2023-01-30T20:11:30.626Z,5.27
2023-01-30T20:13:59.769Z,5.30
2023-01-30T20:16:31.265Z,5.31
2023-01-30T20:19:00.634Z,5.31
2023-01-30T20:21:29.349Z,5.29
2023-01-30T20:23:57.891Z,5.33
2023-01-30T20:26:28.635Z,5.37
2023-01-30T20:28:57.256Z,5.30
2023-01-30T20:31:29.289Z,5.22
2023-01-30T20:33:58.408Z,5.23
2023-01-30T20:36:27.570Z,5.19
2023-01-30T20:38:56.691Z,5.22
2023-01-30T20:41:26.954Z,5.19
2023-01-30T20:43:57.261Z,5.19
2023-01-30T20:46:27.644Z,5.13
2023-01-30T20:48:58.145Z,5.16
2023-01-30T20:51:28.372Z,5.13
2023-01-30T20:53:58.143Z,5.12
2023-01-30T20:56:28.347Z,5.16
2023-01-30T20:58:56.085Z,5.09
2023-01-30T21:01:25.633Z,5.07
2023-01-30T21:03:54.008Z,5.09
2023-01-30T21:06:42.674Z,5.10
2023-01-30T21:09:15.343Z,5.13
2023-01-30T21:11:43.360Z,5.09
2023-01-30T21:14:11.385Z,5.03
2023-01-30T21:16:39.809Z,4.90
2023-01-30T21:19:12.961Z,4.85
2023-01-30T21:21:50.286Z,4.88
2023-01-30T21:24:21.252Z,4.86
2023-01-30T21:26:49.713Z,4.82
2023-01-30T21:29:19.371Z,4.86
2023-01-30T21:31:47.644Z,4.85
2023-01-30T21:34:15.721Z,4.82
2023-01-30T21:37:04.917Z,4.71
2023-01-30T21:39:50.404Z,4.59
2023-01-30T21:42:35.544Z,4.48
2023-01-30T21:45:05.064Z,4.42
2023-01-30T21:47:32.876Z,4.25
2023-01-30T21:50:00.685Z,4.20
2023-01-30T21:52:31.880Z,4.04
2023-01-30T21:54:59.711Z,4.06
2023-01-30T21:57:27.565Z,4.00
2023-01-30T21:59:55.616Z,4.00
2023-01-30T22:02:23.420Z,4.00
2023-01-30T22:04:51.241Z,3.98
2023-01-30T22:07:19.094Z,4.08
2023-01-30T22:09:48.795Z,4.13
2023-01-30T22:12:16.556Z,4.04
2023-01-30T22:14:44.328Z,3.98
2023-01-30T22:17:12.175Z,4.07
2023-01-30T22:19:40.012Z,4.06
2023-01-30T22:22:07.783Z,4.11
2023-01-30T22:24:36.108Z,4.13
2023-01-30T22:27:05.364Z,4.16
2023-01-30T22:29:34.887Z,4.21
2023-01-30T22:32:02.739Z,4.24
2023-01-30T22:34:30.545Z,4.34
2023-01-30T22:36:58.817Z,4.38
2023-01-30T22:39:26.586Z,4.40
2023-01-30T22:41:54.984Z,4.44
2023-01-30T22:44:24.201Z,4.42
2023-01-30T22:46:52.903Z,4.40
2023-01-30T22:49:20.721Z,4.41
2023-01-30T22:51:49.063Z,4.37
2023-01-30T22:54:17.324Z,4.34
2023-01-30T22:56:46.867Z,4.34
2023-01-30T22:59:15.068Z,4.21
2023-01-30T23:01:46.291Z,4.27
2023-01-30T23:04:15.921Z,4.27
2023-01-30T23:06:46.597Z,4.30
2023-01-30T23:09:17.922Z,4.27
2023-01-30T23:12:08.864Z,4.18
2023-01-30T23:14:37.932Z,4.13
2023-01-30T23:17:21.613Z,3.93
2023-01-30T23:19:49.459Z,3.87
2023-01-30T23:22:18.039Z,3.83
2023-01-30T23:24:45.788Z,3.80
2023-01-30T23:27:13.585Z,3.70
2023-01-30T23:29:41.358Z,3.59
2023-01-30T23:32:10.525Z,3.62
2023-01-30T23:34:38.793Z,3.53
2023-01-30T23:37:06.722Z,3.46
2023-01-30T23:39:34.483Z,3.32
2023-01-30T23:42:02.224Z,3.22
2023-01-30T23:44:30.003Z,3.14
2023-01-30T23:46:57.857Z,3.07
2023-01-30T23:49:26.989Z,3.00
2023-01-30T23:51:54.722Z,2.97
2023-01-30T23:54:22.472Z,2.97
2023-01-30T23:56:50.278Z,2.91
2023-01-30T23:59:18.035Z,2.90
